createdAt,value
2023-05-22T00:00:02.489Z,500.00
2023-05-22T00:01:02.472Z,500.00
2023-05-22T00:02:02.499Z,500.00
2023-05-22T00:03:02.533Z,473.00
2023-05-22T00:04:02.421Z,421.00
2023-05-22T00:05:02.477Z,414.00
2023-05-22T00:06:02.367Z,427.00
2023-05-22T00:07:02.372Z,426.00
2023-05-22T00:08:02.338Z,536.00
2023-05-22T00:09:02.317Z,666.00
2023-05-22T00:10:02.297Z,1181.00
2023-05-22T00:11:02.278Z,1586.00
2023-05-22T00:12:02.299Z,1820.00
2023-05-22T00:13:02.250Z,1847.00
2023-05-22T00:14:02.266Z,1653.00
2023-05-22T00:15:02.241Z,1277.00
2023-05-22T00:16:02.214Z,1080.00
2023-05-22T00:17:02.371Z,896.00
2023-05-22T00:18:02.250Z,663.00
2023-05-22T00:19:02.245Z,589.00
2023-05-22T00:20:02.201Z,530.00
2023-05-22T00:21:02.191Z,500.00
2023-05-22T00:22:02.194Z,513.00
2023-05-22T00:23:02.154Z,508.00
2023-05-22T00:24:02.146Z,484.00
2023-05-22T00:25:02.131Z,522.00
2023-05-22T00:26:02.121Z,402.00
2023-05-22T00:27:02.134Z,400.00
2023-05-22T00:28:02.183Z,405.00
2023-05-22T00:29:02.243Z,440.00
2023-05-22T00:30:02.391Z,445.00
2023-05-22T00:31:02.329Z,490.00
2023-05-22T00:32:02.361Z,516.00
2023-05-22T00:33:02.492Z,541.00
2023-05-22T00:34:02.534Z,530.00
2023-05-22T00:35:02.475Z,550.00
2023-05-22T00:36:02.518Z,634.00
2023-05-22T00:37:02.584Z,852.00
2023-05-22T00:38:02.609Z,1257.00
2023-05-22T00:39:02.653Z,1719.00
2023-05-22T00:40:02.727Z,2247.00
2023-05-22T00:41:02.769Z,2624.00
2023-05-22T00:42:02.810Z,2893.00
2023-05-22T00:43:02.824Z,3026.00
2023-05-22T00:44:02.856Z,3111.00
2023-05-22T00:45:02.895Z,3123.00
2023-05-22T00:46:02.975Z,2944.00
2023-05-22T00:47:03.036Z,2680.00
2023-05-22T00:48:03.097Z,2288.00
2023-05-22T00:49:03.057Z,1951.00
2023-05-22T00:50:03.117Z,1852.00
2023-05-22T00:51:03.154Z,1903.00
2023-05-22T00:52:03.270Z,2002.00
2023-05-22T00:53:03.253Z,2173.00
2023-05-22T00:54:03.279Z,2367.00
2023-05-22T00:55:03.382Z,2596.00
2023-05-22T00:56:03.379Z,2790.00
2023-05-22T00:57:03.437Z,2903.00
2023-05-22T00:58:03.494Z,3025.00
2023-05-22T00:59:03.536Z,3166.00
2023-05-22T01:00:03.587Z,3299.00
2023-05-22T01:01:03.642Z,3426.00
2023-05-22T01:02:03.872Z,3453.00
2023-05-22T01:03:03.833Z,3488.00
2023-05-22T01:04:03.933Z,3549.00
2023-05-22T01:05:03.890Z,3578.00
2023-05-22T01:06:03.932Z,3609.00
2023-05-22T01:07:03.996Z,3545.00
2023-05-22T01:08:04.090Z,3401.00
2023-05-22T01:09:04.078Z,3157.00
2023-05-22T01:10:04.145Z,3026.00
2023-05-22T01:11:04.192Z,2528.00
2023-05-22T01:12:04.219Z,2336.00
2023-05-22T01:13:04.297Z,2236.00
2023-05-22T01:14:04.335Z,2307.00
2023-05-22T01:15:04.385Z,2035.00
2023-05-22T01:16:04.473Z,1830.00
2023-05-22T01:17:04.485Z,1838.00
2023-05-22T01:18:04.620Z,1918.00
2023-05-22T01:19:04.658Z,1903.00
2023-05-22T01:20:04.632Z,1802.00
2023-05-22T01:21:04.701Z,1906.00
2023-05-22T01:22:04.759Z,2067.00
2023-05-22T01:23:04.803Z,2377.00
2023-05-22T01:24:04.859Z,2777.00
2023-05-22T01:25:04.931Z,3072.00
2023-05-22T01:26:04.990Z,3296.00
2023-05-22T01:27:05.015Z,3445.00
2023-05-22T01:28:05.099Z,3561.00
2023-05-22T01:29:05.139Z,3600.00
2023-05-22T01:30:05.220Z,3537.00
2023-05-22T01:31:05.264Z,3466.00
2023-05-22T01:32:05.334Z,3378.00
2023-05-22T01:33:05.435Z,3222.00
2023-05-22T01:34:05.495Z,3001.00
2023-05-22T01:35:05.430Z,2814.00
2023-05-22T01:36:05.451Z,2723.00
2023-05-22T01:37:05.474Z,2621.00
2023-05-22T01:38:05.480Z,2653.00
2023-05-22T01:39:05.525Z,2807.00
2023-05-22T01:40:05.527Z,2908.00
2023-05-22T01:41:05.535Z,2998.00
2023-05-22T01:42:05.548Z,3074.00
2023-05-22T01:43:05.577Z,3110.00
2023-05-22T01:44:05.619Z,3122.00
2023-05-22T01:45:05.615Z,3159.00
2023-05-22T01:46:05.666Z,3165.00
2023-05-22T01:47:05.703Z,3230.00
2023-05-22T01:48:05.759Z,3273.00
2023-05-22T01:49:05.727Z,3379.00
2023-05-22T01:50:05.885Z,3467.00
2023-05-22T01:51:05.769Z,3542.00
2023-05-22T01:52:05.826Z,3630.00
2023-05-22T01:53:05.851Z,3724.00
2023-05-22T01:54:05.878Z,3776.00
2023-05-22T01:55:05.898Z,3653.00
2023-05-22T01:56:05.927Z,3509.00
2023-05-22T01:57:05.952Z,3422.00
2023-05-22T01:58:05.947Z,3251.00
2023-05-22T01:59:05.967Z,3140.00
2023-05-22T02:00:05.972Z,3184.00
2023-05-22T02:01:06.024Z,2744.00
2023-05-22T02:02:06.070Z,2624.00
2023-05-22T02:03:06.108Z,2142.00
2023-05-22T02:04:06.022Z,1917.00
2023-05-22T02:05:06.047Z,1798.00
2023-05-22T02:06:06.069Z,1518.00
2023-05-22T02:07:06.036Z,1434.00
2023-05-22T02:08:06.053Z,1465.00
2023-05-22T02:09:06.063Z,1417.00
2023-05-22T02:10:06.093Z,1423.00
2023-05-22T02:11:06.094Z,1408.00
2023-05-22T02:12:06.089Z,1348.00
2023-05-22T02:13:06.098Z,1403.00
2023-05-22T02:14:06.093Z,1167.00
2023-05-22T02:15:06.106Z,1286.00
2023-05-22T02:16:06.141Z,1245.00
2023-05-22T02:17:06.122Z,1226.00
2023-05-22T02:18:06.195Z,1311.00
2023-05-22T02:19:06.194Z,1277.00
2023-05-22T02:20:06.108Z,1461.00
2023-05-22T02:21:06.128Z,1734.00
2023-05-22T02:22:06.162Z,2116.00
2023-05-22T02:23:06.171Z,2591.00
2023-05-22T02:24:06.166Z,2847.00
2023-05-22T02:25:06.187Z,3106.00
2023-05-22T02:26:06.186Z,3350.00
2023-05-22T02:27:06.202Z,3555.00
2023-05-22T02:28:06.254Z,3754.00
2023-05-22T02:29:06.247Z,3888.00
2023-05-22T02:30:06.261Z,3989.00
2023-05-22T02:31:06.305Z,4053.00
2023-05-22T02:32:06.310Z,4117.00
2023-05-22T02:33:06.458Z,4172.00
2023-05-22T02:34:06.348Z,4216.00
2023-05-22T02:35:06.362Z,4205.00
2023-05-22T02:36:06.436Z,4223.00
2023-05-22T02:37:06.408Z,4228.00
2023-05-22T02:38:06.453Z,4214.00
2023-05-22T02:39:06.435Z,4212.00
2023-05-22T02:40:06.577Z,4221.00
2023-05-22T02:41:06.534Z,4175.00
2023-05-22T02:42:06.544Z,4118.00
2023-05-22T02:43:06.582Z,4077.00
2023-05-22T02:44:06.614Z,4022.00
2023-05-22T02:45:06.640Z,3948.00
2023-05-22T02:46:06.725Z,3939.00
2023-05-22T02:47:06.773Z,3934.00
2023-05-22T02:48:06.874Z,3925.00
2023-05-22T02:49:06.851Z,3946.00
2023-05-22T02:50:06.883Z,3933.00
2023-05-22T02:51:06.908Z,3896.00
2023-05-22T02:52:06.938Z,3820.00
2023-05-22T02:53:06.981Z,3781.00
2023-05-22T02:54:07.044Z,3744.00
2023-05-22T02:55:07.037Z,3754.00
2023-05-22T02:56:07.049Z,3715.00
2023-05-22T02:57:07.071Z,3576.00
2023-05-22T02:58:07.092Z,3010.00
2023-05-22T02:59:07.079Z,2119.00
2023-05-22T03:00:07.094Z,2352.00
2023-05-22T03:01:07.111Z,1808.00
2023-05-22T03:02:07.152Z,1350.00
2023-05-22T03:03:07.176Z,1249.00
2023-05-22T03:04:07.217Z,1111.00
2023-05-22T03:05:07.108Z,1081.00
2023-05-22T03:06:07.098Z,732.00
2023-05-22T03:07:07.096Z,706.00
2023-05-22T03:08:07.085Z,786.00
2023-05-22T03:09:07.091Z,1053.00
2023-05-22T03:10:07.146Z,1141.00
2023-05-22T03:11:07.113Z,1365.00
2023-05-22T03:12:07.137Z,1667.00
2023-05-22T03:13:07.187Z,1953.00
2023-05-22T03:14:07.218Z,2165.00
2023-05-22T03:15:07.267Z,2377.00
2023-05-22T03:16:07.328Z,2510.00
2023-05-22T03:17:07.365Z,2658.00
2023-05-22T03:18:07.429Z,2783.00
2023-05-22T03:19:07.502Z,2867.00
2023-05-22T03:20:07.548Z,2884.00
2023-05-22T03:21:07.541Z,2952.00
2023-05-22T03:22:07.587Z,3035.00
2023-05-22T03:23:07.630Z,3099.00
2023-05-22T03:24:07.695Z,3176.00
2023-05-22T03:25:07.712Z,3256.00
2023-05-22T03:26:07.806Z,3303.00
2023-05-22T03:27:07.841Z,3328.00
2023-05-22T03:28:07.871Z,3358.00
2023-05-22T03:29:07.964Z,3344.00
2023-05-22T03:30:08.002Z,3169.00
2023-05-22T03:31:08.028Z,3068.00
2023-05-22T03:32:08.104Z,2980.00
2023-05-22T03:33:08.226Z,2912.00
2023-05-22T03:34:08.325Z,2859.00
2023-05-22T03:35:08.300Z,2937.00
2023-05-22T03:36:08.352Z,2981.00
2023-05-22T03:37:08.396Z,3076.00
2023-05-22T03:38:08.468Z,3178.00
2023-05-22T03:39:08.529Z,3319.00
2023-05-22T03:40:08.596Z,3416.00
2023-05-22T03:41:08.671Z,3491.00
2023-05-22T03:42:08.690Z,3510.00
2023-05-22T03:43:08.712Z,3524.00
2023-05-22T03:44:08.766Z,3536.00
2023-05-22T03:45:08.813Z,3630.00
2023-05-22T03:46:08.950Z,3666.00
2023-05-22T03:47:08.861Z,3673.00
2023-05-22T03:48:08.935Z,3561.00
2023-05-22T03:49:08.888Z,3270.00
2023-05-22T03:50:08.897Z,3272.00
2023-05-22T03:51:08.917Z,2989.00
2023-05-22T03:52:08.921Z,2573.00
2023-05-22T03:53:08.963Z,2241.00
2023-05-22T03:54:08.974Z,2042.00
2023-05-22T03:55:08.972Z,1985.00
2023-05-22T03:56:08.990Z,1759.00
2023-05-22T03:57:08.995Z,1800.00
2023-05-22T03:58:09.027Z,1893.00
2023-05-22T03:59:09.035Z,1825.00
2023-05-22T04:00:09.077Z,1675.00
2023-05-22T04:01:09.104Z,1600.00
2023-05-22T04:02:09.126Z,1675.00
2023-05-22T04:03:09.224Z,1834.00
2023-05-22T04:04:09.237Z,1888.00
2023-05-22T04:05:09.259Z,1797.00
2023-05-22T04:06:09.283Z,1839.00
2023-05-22T04:07:09.332Z,1745.00
2023-05-22T04:08:09.413Z,1485.00
2023-05-22T04:09:09.461Z,1451.00
2023-05-22T04:10:09.526Z,1495.00
2023-05-22T04:11:09.605Z,1529.00
2023-05-22T04:12:09.662Z,1394.00
2023-05-22T04:13:09.731Z,1393.00
2023-05-22T04:14:09.827Z,1501.00
2023-05-22T04:15:09.849Z,1580.00
2023-05-22T04:16:09.930Z,1660.00
2023-05-22T04:17:09.917Z,1427.00
2023-05-22T04:18:10.019Z,1505.00
2023-05-22T04:19:10.046Z,1268.00
2023-05-22T04:20:10.034Z,955.00
2023-05-22T04:21:10.080Z,680.00
2023-05-22T04:22:10.152Z,646.00
2023-05-22T04:23:10.068Z,630.00
2023-05-22T04:24:10.040Z,563.00
2023-05-22T04:25:10.019Z,466.00
2023-05-22T04:26:10.040Z,464.00
2023-05-22T04:27:10.080Z,500.00
2023-05-22T04:28:10.013Z,506.00
2023-05-22T04:29:09.978Z,557.00
2023-05-22T04:30:09.956Z,514.00
2023-05-22T04:31:09.995Z,498.00
2023-05-22T04:32:09.915Z,499.00
2023-05-22T04:33:09.950Z,532.00
2023-05-22T04:34:09.890Z,553.00
2023-05-22T04:35:09.867Z,583.00
2023-05-22T04:36:12.356Z,657.00
2023-05-22T04:37:09.795Z,991.00
2023-05-22T04:38:09.735Z,1752.00
2023-05-22T04:39:09.674Z,2609.00
2023-05-22T04:40:09.626Z,3383.00
2023-05-22T04:41:09.603Z,4037.00
2023-05-22T04:42:09.530Z,4380.00
2023-05-22T04:43:09.487Z,4600.00
2023-05-22T04:44:09.424Z,4775.00
2023-05-22T04:45:09.354Z,4975.00
2023-05-22T04:46:09.408Z,5122.00
2023-05-22T04:47:09.340Z,5094.00
2023-05-22T04:48:09.561Z,4835.00
2023-05-22T04:49:09.111Z,4853.00
2023-05-22T04:50:09.062Z,4797.00
2023-05-22T04:51:09.034Z,4895.00
2023-05-22T04:52:08.989Z,5035.00
2023-05-22T04:53:08.932Z,5210.00
2023-05-22T04:54:08.842Z,5212.00
2023-05-22T04:55:08.799Z,5251.00
2023-05-22T04:56:08.775Z,5374.00
2023-05-22T04:57:08.683Z,5462.00
2023-05-22T04:58:08.642Z,5481.00
2023-05-22T04:59:08.569Z,5494.00
2023-05-22T05:00:08.519Z,5503.00
2023-05-22T05:01:08.460Z,5366.00
2023-05-22T05:02:08.497Z,5251.00
2023-05-22T05:03:08.577Z,4715.00
2023-05-22T05:04:08.356Z,4006.00
2023-05-22T05:05:08.219Z,3239.00
2023-05-22T05:06:08.116Z,2692.00
2023-05-22T05:07:08.042Z,2552.00
2023-05-22T05:08:07.971Z,2120.00
2023-05-22T05:09:07.902Z,1533.00
2023-05-22T05:10:07.850Z,1406.00
2023-05-22T05:11:07.752Z,1284.00
2023-05-22T05:12:07.738Z,1418.00
2023-05-22T05:13:07.592Z,1575.00
2023-05-22T05:14:07.604Z,1490.00
2023-05-22T05:15:07.440Z,1464.00
2023-05-22T05:16:07.386Z,1371.00
2023-05-22T05:17:07.286Z,1490.00
2023-05-22T05:18:07.441Z,1630.00
2023-05-22T05:19:07.202Z,1671.00
2023-05-22T05:20:07.078Z,1623.00
2023-05-22T05:21:07.013Z,1598.00
2023-05-22T05:22:06.921Z,1679.00
2023-05-22T05:23:07.085Z,1991.00
2023-05-22T05:24:06.862Z,2087.00
2023-05-22T05:25:06.792Z,1980.00
2023-05-22T05:26:06.732Z,2069.00
2023-05-22T05:27:06.720Z,2225.00
2023-05-22T05:28:06.679Z,1993.00
2023-05-22T05:29:06.663Z,1801.00
2023-05-22T05:30:06.666Z,1715.00
2023-05-22T05:31:07.168Z,1667.00
2023-05-22T05:32:06.680Z,1692.00
2023-05-22T05:33:07.162Z,1807.00
2023-05-22T05:34:06.601Z,1906.00
2023-05-22T05:35:06.532Z,1892.00
2023-05-22T05:36:06.524Z,2000.00
2023-05-22T05:37:06.496Z,2047.00
2023-05-22T05:38:06.456Z,1953.00
2023-05-22T05:39:06.472Z,1848.00
2023-05-22T05:40:06.433Z,1904.00
2023-05-22T05:41:06.407Z,1711.00
2023-05-22T05:42:06.420Z,1639.00
2023-05-22T05:43:08.052Z,1665.00
2023-05-22T05:44:06.297Z,1841.00
2023-05-22T05:45:06.583Z,1892.00
2023-05-22T05:46:06.205Z,1955.00
2023-05-22T05:47:06.086Z,1882.00
2023-05-22T05:48:13.526Z,1667.00
2023-05-22T05:49:05.970Z,1669.00
2023-05-22T05:50:06.211Z,1703.00
2023-05-22T05:51:05.807Z,1806.00
2023-05-22T05:52:05.747Z,1995.00
2023-05-22T05:53:06.111Z,2341.00
2023-05-22T05:54:05.622Z,2400.00
2023-05-22T05:55:05.552Z,2333.00
2023-05-22T05:56:05.625Z,2393.00
2023-05-22T05:57:05.449Z,2440.00
2023-05-22T05:58:05.417Z,2481.00
2023-05-22T05:59:05.349Z,2489.00
2023-05-22T06:00:20.856Z,2662.00
2023-05-22T06:01:07.329Z,2667.00
2023-05-22T06:02:20.855Z,2672.00
2023-05-22T06:03:06.105Z,2672.00
2023-05-22T06:04:20.595Z,2672.00
2023-05-22T06:06:20.605Z,2669.00
2023-05-22T06:07:04.812Z,2674.00
2023-05-22T06:09:08.121Z,2677.00
2023-05-22T06:10:12.852Z,2685.00
2023-05-22T06:11:20.393Z,2686.00
2023-05-22T06:12:07.673Z,2683.00
2023-05-22T06:13:04.400Z,2687.00
2023-05-22T06:14:04.424Z,2753.00
2023-05-22T06:15:11.998Z,2890.00
2023-05-22T06:16:19.893Z,2682.00
2023-05-22T06:17:04.629Z,2678.00
2023-05-22T06:18:04.226Z,2680.00
2023-05-22T06:19:05.157Z,2718.00
2023-05-22T06:20:04.062Z,2729.00
2023-05-22T06:21:05.979Z,2868.00
2023-05-22T06:22:04.208Z,3152.00
2023-05-22T06:23:03.683Z,3218.00
2023-05-22T06:24:03.626Z,3343.00
2023-05-22T06:25:03.552Z,3388.00
2023-05-22T06:26:03.478Z,3343.00
2023-05-22T06:27:03.624Z,3416.00
2023-05-22T06:28:03.346Z,3276.00
2023-05-22T06:29:03.276Z,3332.00
2023-05-22T06:30:04.590Z,3348.00
2023-05-22T06:31:03.367Z,3209.00
2023-05-22T06:32:03.666Z,3146.00
2023-05-22T06:33:03.388Z,2933.00
2023-05-22T06:34:03.369Z,2750.00
2023-05-22T06:35:03.456Z,2668.00
2023-05-22T06:36:03.304Z,2291.00
2023-05-22T06:37:03.775Z,1825.00
2023-05-22T06:38:03.460Z,1709.00
2023-05-22T06:39:03.261Z,1664.00
2023-05-22T06:40:10.620Z,1727.00
2023-05-22T06:41:03.136Z,1481.00
2023-05-22T06:42:03.552Z,1413.00
2023-05-22T06:43:03.007Z,1379.00
2023-05-22T06:44:06.115Z,1023.00
2023-05-22T06:45:02.862Z,796.00
2023-05-22T06:46:02.815Z,634.00
2023-05-22T06:47:02.708Z,560.00
2023-05-22T06:48:06.387Z,611.00
2023-05-22T06:49:03.581Z,637.00
2023-05-22T06:50:02.935Z,772.00
2023-05-22T06:51:02.425Z,716.00
2023-05-22T06:52:05.216Z,606.00
2023-05-22T06:53:05.471Z,704.00
2023-05-22T06:54:02.267Z,665.00
2023-05-22T06:55:04.289Z,816.00
2023-05-22T06:56:04.107Z,1142.00
2023-05-22T06:57:02.205Z,933.00
2023-05-22T06:58:02.768Z,648.00
2023-05-22T06:59:00.934Z,649.00
2023-05-22T07:00:02.355Z,642.00
2023-05-22T07:01:01.983Z,580.00
2023-05-22T07:02:01.577Z,570.00
2023-05-22T07:03:01.728Z,549.00
2023-05-22T07:04:01.445Z,562.00
2023-05-22T07:05:02.661Z,404.00
2023-05-22T07:06:01.257Z,435.00
2023-05-22T07:07:01.183Z,400.00
2023-05-22T07:08:01.149Z,503.00
2023-05-22T07:09:01.188Z,629.00
2023-05-22T07:10:01.430Z,580.00
2023-05-22T07:11:02.332Z,450.00
2023-05-22T07:12:00.783Z,554.00
2023-05-22T07:13:01.170Z,693.00
2023-05-22T07:14:00.587Z,521.00
2023-05-22T07:15:00.522Z,500.00
2023-05-22T07:16:00.515Z,545.00
2023-05-22T07:17:01.572Z,605.00
2023-05-22T07:18:00.427Z,646.00
2023-05-22T07:19:00.301Z,1196.00
2023-05-22T07:20:00.227Z,1485.00
2023-05-22T07:21:00.168Z,1448.00
2023-05-22T07:22:00.183Z,570.00
2023-05-22T07:23:00.161Z,400.00
2023-05-22T07:23:59.971Z,400.00
2023-05-22T07:24:59.935Z,400.00
2023-05-22T07:26:03.342Z,400.00
2023-05-22T07:26:59.834Z,400.00
2023-05-22T07:28:01.123Z,400.00
2023-05-22T07:28:59.641Z,400.00
2023-05-22T07:29:59.548Z,400.00
2023-05-22T07:31:00.455Z,400.00
2023-05-22T07:31:59.469Z,457.00
2023-05-22T07:32:59.699Z,543.00
2023-05-22T07:34:00.129Z,634.00
2023-05-22T07:34:59.329Z,779.00
2023-05-22T07:35:59.284Z,878.00
2023-05-22T07:37:02.455Z,914.00
2023-05-22T07:37:59.372Z,915.00
2023-05-22T07:39:02.289Z,955.00
2023-05-22T07:39:59.895Z,742.00
2023-05-22T07:40:58.793Z,525.00
2023-05-22T07:42:30.743Z,536.00
2023-05-22T07:42:59.366Z,433.00
2023-05-22T07:44:06.042Z,400.00
2023-05-22T07:45:00.491Z,400.00
2023-05-22T07:45:59.829Z,400.00
2023-05-22T07:47:05.771Z,400.00
2023-05-22T07:47:58.669Z,400.00
2023-05-22T07:49:01.332Z,424.00
2023-05-22T07:49:58.505Z,400.00
2023-05-22T07:50:57.930Z,400.00
2023-05-22T07:52:05.188Z,400.00
2023-05-22T07:53:00.873Z,400.00
2023-05-22T07:54:04.958Z,400.00
2023-05-22T07:54:57.648Z,400.00
2023-05-22T07:56:00.497Z,400.00
2023-05-22T07:56:57.193Z,400.00
2023-05-22T07:57:57.389Z,400.00
2023-05-22T07:58:57.157Z,400.00
2023-05-22T07:59:56.875Z,400.00
2023-05-22T08:00:56.693Z,400.00
2023-05-22T08:01:58.160Z,400.00
2023-05-22T08:02:56.766Z,400.00
2023-05-22T08:03:56.922Z,400.00
2023-05-22T08:04:56.697Z,400.00
2023-05-22T08:05:56.058Z,400.00
2023-05-22T08:06:55.943Z,400.00
2023-05-22T08:07:55.804Z,400.00
2023-05-22T08:08:56.146Z,400.00
2023-05-22T08:09:55.540Z,400.00
2023-05-22T08:11:04.159Z,400.00
2023-05-22T08:11:55.279Z,400.00
2023-05-22T08:12:55.154Z,400.00
2023-05-22T08:13:55.164Z,400.00
2023-05-22T08:14:55.067Z,400.00
2023-05-22T08:16:00.288Z,400.00
2023-05-22T08:16:54.686Z,400.00
2023-05-22T08:17:54.493Z,400.00
2023-05-22T08:18:54.698Z,400.00
2023-05-22T08:19:54.233Z,400.00
2023-05-22T08:20:54.963Z,400.00
2023-05-22T08:21:53.924Z,400.00
2023-05-22T08:22:54.692Z,400.00
2023-05-22T08:23:53.639Z,400.00
2023-05-22T08:24:53.426Z,400.00
2023-05-22T08:25:53.331Z,400.00
2023-05-22T08:26:53.146Z,400.00
2023-05-22T08:27:52.996Z,400.00
2023-05-22T08:28:53.145Z,400.00
2023-05-22T08:29:52.855Z,400.00
2023-05-22T08:30:52.528Z,400.00
2023-05-22T08:31:52.487Z,400.00
2023-05-22T08:32:52.668Z,400.00
2023-05-22T08:33:52.184Z,400.00
2023-05-22T08:34:51.882Z,400.00
2023-05-22T08:35:51.705Z,400.00
2023-05-22T08:36:51.583Z,400.00
2023-05-22T08:37:51.413Z,400.00
2023-05-22T08:38:51.675Z,400.00
2023-05-22T08:39:58.583Z,400.00
2023-05-22T08:40:51.212Z,400.00
2023-05-22T08:41:49.837Z,400.00
2023-05-22T08:42:51.660Z,400.00
2023-05-22T08:43:50.659Z,400.00
2023-05-22T08:44:50.316Z,400.00
2023-05-22T08:45:50.310Z,400.00
2023-05-22T08:46:49.983Z,400.00
2023-05-22T08:47:50.151Z,400.00
2023-05-22T08:48:49.633Z,400.00
2023-05-22T08:49:49.453Z,400.00
2023-05-22T08:50:49.325Z,400.00
2023-05-22T08:51:49.168Z,661.00
2023-05-22T08:52:49.169Z,531.00
2023-05-22T08:53:48.890Z,400.00
2023-05-22T08:54:48.717Z,400.00
2023-05-22T08:55:48.560Z,400.00
2023-05-22T08:56:56.283Z,400.00
2023-05-22T08:57:48.654Z,400.00
2023-05-22T08:58:48.038Z,400.00
2023-05-22T08:59:47.862Z,400.00
2023-05-22T09:00:47.719Z,400.00
2023-05-22T09:01:47.582Z,400.00
2023-05-22T09:02:47.701Z,400.00
2023-05-22T09:03:47.678Z,400.00
2023-05-22T09:04:46.972Z,400.00
2023-05-22T09:05:46.770Z,400.00
2023-05-22T09:06:46.660Z,400.00
2023-05-22T09:07:46.661Z,400.00
2023-05-22T09:08:46.224Z,400.00
2023-05-22T09:09:46.174Z,400.00
2023-05-22T09:10:45.854Z,400.00
2023-05-22T09:11:46.162Z,400.00
2023-05-22T09:12:45.484Z,400.00
2023-05-22T09:13:45.302Z,514.00
2023-05-22T09:14:45.112Z,420.00
2023-05-22T09:15:44.923Z,425.00
2023-05-22T09:16:44.768Z,407.00
2023-05-22T09:17:44.623Z,433.00
2023-05-22T09:18:44.413Z,424.00
2023-05-22T09:19:44.121Z,479.00
2023-05-22T09:20:44.162Z,684.00
2023-05-22T09:21:44.250Z,518.00
2023-05-22T09:22:43.553Z,503.00
2023-05-22T09:23:43.344Z,756.00
2023-05-22T09:24:43.241Z,496.00
2023-05-22T09:25:43.109Z,474.00
2023-05-22T09:26:43.313Z,477.00
2023-05-22T09:27:43.658Z,478.00
2023-05-22T09:28:42.667Z,586.00
2023-05-22T09:29:42.223Z,584.00
2023-05-22T09:30:42.439Z,621.00
2023-05-22T09:31:45.332Z,658.00
2023-05-22T09:32:41.768Z,576.00
2023-05-22T09:33:41.691Z,446.00
2023-05-22T09:35:13.038Z,628.00
2023-05-22T09:35:44.379Z,659.00
2023-05-22T09:36:40.852Z,640.00
2023-05-22T09:37:40.619Z,644.00
2023-05-22T09:38:40.451Z,612.00
2023-05-22T09:39:40.247Z,737.00
2023-05-22T09:40:40.441Z,1263.00
2023-05-22T09:41:43.009Z,1249.00
2023-05-22T09:42:39.619Z,705.00
2023-05-22T09:43:39.685Z,582.00
2023-05-22T09:44:39.220Z,1228.00
2023-05-22T09:45:42.226Z,1167.00
2023-05-22T09:46:39.303Z,518.00
2023-05-22T09:47:38.710Z,451.00
2023-05-22T09:48:38.453Z,512.00
2023-05-22T09:49:38.292Z,597.00
2023-05-22T09:50:38.236Z,641.00
2023-05-22T09:51:37.887Z,932.00
2023-05-22T09:52:37.652Z,618.00
2023-05-22T09:53:37.682Z,400.00
2023-05-22T09:54:37.269Z,400.00
2023-05-22T09:55:37.060Z,400.00
2023-05-22T09:56:39.874Z,400.00
2023-05-22T09:57:36.935Z,400.00
2023-05-22T09:58:36.491Z,400.00
2023-05-22T09:59:36.316Z,400.00
2023-05-22T10:00:36.073Z,400.00
2023-05-22T10:01:35.972Z,400.00
2023-05-22T10:02:35.756Z,400.00
2023-05-22T10:03:35.686Z,400.00
2023-05-22T10:04:35.353Z,400.00
2023-05-22T10:05:35.193Z,655.00
2023-05-22T10:06:34.929Z,2150.00
2023-05-22T10:07:34.734Z,1530.00
2023-05-22T10:08:34.701Z,664.00
2023-05-22T10:09:34.776Z,647.00
2023-05-22T10:10:34.194Z,515.00
2023-05-22T10:11:34.019Z,504.00
2023-05-22T10:12:33.790Z,524.00
2023-05-22T10:13:33.686Z,553.00
2023-05-22T10:14:33.784Z,741.00
2023-05-22T10:15:33.249Z,1496.00
2023-05-22T10:16:33.103Z,1130.00
2023-05-22T10:17:32.883Z,931.00
2023-05-22T10:18:33.694Z,496.00
2023-05-22T10:19:32.509Z,557.00
2023-05-22T10:20:32.287Z,904.00
2023-05-22T10:21:32.258Z,1173.00
2023-05-22T10:22:32.005Z,1592.00
2023-05-22T10:23:32.195Z,1382.00
2023-05-22T10:24:31.779Z,1561.00
2023-05-22T10:25:31.705Z,2193.00
2023-05-22T10:26:31.286Z,1838.00
2023-05-22T10:27:31.089Z,1959.00
2023-05-22T10:28:31.212Z,2452.00
2023-05-22T10:29:30.759Z,1865.00
2023-05-22T10:30:30.580Z,2186.00
2023-05-22T10:31:30.383Z,2448.00
2023-05-22T10:32:30.728Z,2064.00
2023-05-22T10:33:30.059Z,2211.00
2023-05-22T10:34:29.830Z,2016.00
2023-05-22T10:35:29.624Z,1234.00
2023-05-22T10:36:29.431Z,1040.00
2023-05-22T10:37:29.403Z,1469.00
2023-05-22T10:38:29.202Z,1942.00
2023-05-22T10:39:28.937Z,1135.00
2023-05-22T10:40:29.334Z,674.00
2023-05-22T10:41:28.560Z,1010.00
2023-05-22T10:42:28.346Z,1433.00
2023-05-22T10:43:28.177Z,1376.00
2023-05-22T10:44:28.025Z,935.00
2023-05-22T10:45:27.907Z,722.00
2023-05-22T10:46:27.749Z,1240.00
2023-05-22T10:47:27.531Z,1007.00
2023-05-22T10:48:27.721Z,786.00
2023-05-22T10:49:27.214Z,1184.00
2023-05-22T10:50:27.020Z,699.00
2023-05-22T10:51:26.829Z,772.00
2023-05-22T10:52:26.663Z,682.00
2023-05-22T10:53:26.846Z,564.00
2023-05-22T10:54:26.376Z,574.00
2023-05-22T10:55:26.233Z,923.00
2023-05-22T10:56:26.099Z,1068.00
2023-05-22T10:57:25.989Z,857.00
2023-05-22T10:58:26.210Z,1107.00
2023-05-22T10:59:26.644Z,1469.00
2023-05-22T11:00:25.474Z,400.00
2023-05-22T11:01:25.275Z,400.00
2023-05-22T11:02:40.794Z,401.00
2023-05-22T11:03:25.273Z,400.00
2023-05-22T11:04:25.263Z,400.00
2023-05-22T11:05:24.561Z,400.00
2023-05-22T11:06:25.361Z,400.00
2023-05-22T11:07:24.199Z,400.00
2023-05-22T11:08:24.218Z,400.00
2023-05-22T11:10:23.776Z,400.00
2023-05-22T11:11:23.518Z,400.00
2023-05-22T11:12:23.320Z,400.00
2023-05-22T11:13:23.237Z,400.00
2023-05-22T11:14:23.223Z,418.00
2023-05-22T11:15:22.788Z,400.00
2023-05-22T11:16:22.721Z,400.00
2023-05-22T11:17:22.447Z,400.00
2023-05-22T11:18:22.304Z,400.00
2023-05-22T11:19:24.048Z,400.00
2023-05-22T11:20:21.939Z,401.00
2023-05-22T11:21:21.791Z,400.00
2023-05-22T11:22:21.595Z,400.00
2023-05-22T11:23:21.741Z,444.00
2023-05-22T11:24:21.756Z,596.00
2023-05-22T11:25:21.076Z,612.00
2023-05-22T11:26:21.041Z,1128.00
2023-05-22T11:27:20.703Z,1305.00
2023-05-22T11:28:21.507Z,523.00
2023-05-22T11:29:21.050Z,548.00
2023-05-22T11:30:20.166Z,567.00
2023-05-22T11:31:20.051Z,2449.00
2023-05-22T11:32:19.806Z,2706.00
2023-05-22T11:33:19.751Z,983.00
2023-05-22T11:34:19.504Z,1310.00
2023-05-22T11:35:19.274Z,1055.00
2023-05-22T11:36:19.075Z,1347.00
2023-05-22T11:37:18.915Z,797.00
2023-05-22T11:38:18.742Z,687.00
2023-05-22T11:39:18.532Z,1210.00
2023-05-22T11:40:18.351Z,1488.00
2023-05-22T11:41:18.165Z,713.00
2023-05-22T11:42:18.102Z,530.00
2023-05-22T11:43:17.802Z,484.00
2023-05-22T11:44:17.636Z,516.00
2023-05-22T11:45:17.411Z,557.00
2023-05-22T11:46:17.274Z,722.00
2023-05-22T11:47:17.053Z,664.00
2023-05-22T11:48:16.955Z,1608.00
2023-05-22T11:49:16.759Z,727.00
2023-05-22T11:50:22.498Z,707.00
2023-05-22T11:51:16.418Z,643.00
2023-05-22T11:52:16.157Z,400.00
2023-05-22T11:53:16.029Z,400.00
2023-05-22T11:54:15.842Z,400.00
2023-05-22T11:55:15.707Z,400.00
2023-05-22T11:56:15.587Z,400.00
2023-05-22T11:57:15.366Z,1045.00
2023-05-22T11:58:15.364Z,1695.00
2023-05-22T11:59:15.029Z,1202.00
2023-05-22T12:00:14.941Z,1362.00
2023-05-22T12:01:14.722Z,1507.00
2023-05-22T12:02:14.744Z,566.00
2023-05-22T12:03:14.420Z,568.00
2023-05-22T12:04:14.262Z,553.00
2023-05-22T12:05:14.008Z,445.00
2023-05-22T12:06:16.429Z,586.00
2023-05-22T12:07:13.744Z,598.00
2023-05-22T12:08:13.764Z,603.00
2023-05-22T12:09:13.401Z,492.00
2023-05-22T12:10:13.940Z,525.00
2023-05-22T12:11:28.704Z,1627.00
2023-05-22T12:12:13.272Z,613.00
2023-05-22T12:13:15.997Z,748.00
2023-05-22T12:14:12.800Z,619.00
2023-05-22T12:15:12.502Z,625.00
2023-05-22T12:16:12.493Z,462.00
2023-05-22T12:17:12.229Z,425.00